La Molina, Catalunya

latitud = 42° 19' 57''N | longitud = 001° 56' 22''E
1703 metros sobre el nivel del mar | datos mensuales

Fecha, hora, temperatura, viento dirección y velocidad, humedad y presión.

  • 21-01-2018 02:00:00 | 5.10°C | Noroeste |10.00 km/h | 76.00% | 828.90 hPa
  • 21-01-2018 01:00:00 | 3.90°C | Sur |6.00 km/h | 82.00% | 829.20 hPa
  • 21-01-2018 00:00:00 | 4.00°C | Sur |5.00 km/h | 82.00% | 829.20 hPa
  • 20-01-2018 23:00:00 | 4.80°C | Noroeste |6.00 km/h | 75.00% | 829.00 hPa
  • 20-01-2018 22:00:00 | 5.90°C | Noroeste |10.00 km/h | 68.00% | 828.90 hPa
  • 20-01-2018 21:00:00 | 5.00°C | Oeste |6.00 km/h | 72.00% | 828.50 hPa
  • 20-01-2018 20:00:00 | 4.80°C | Noroeste |9.00 km/h | 75.00% | 828.20 hPa
  • 20-01-2018 19:00:00 | 4.00°C | Sudeste |3.00 km/h | 75.00% | 828.40 hPa
  • 20-01-2018 18:00:00 | 4.40°C | Oeste |5.00 km/h | 69.00% | 827.90 hPa
  • 20-01-2018 17:00:00 | 5.60°C | Noroeste |5.00 km/h | 60.00% | 827.80 hPa
  • 20-01-2018 16:00:00 | 6.90°C | Noroeste |8.00 km/h | 55.00% | 827.20 hPa
  • 20-01-2018 15:00:00 | 6.70°C | Noroeste |4.00 km/h | 54.00% | 827.50 hPa
  • 20-01-2018 14:00:00 | 7.00°C | Este |3.00 km/h | 50.00% | 827.70 hPa
  • 20-01-2018 13:00:00 | 3.10°C | Este |8.00 km/h | 58.00% | 828.40 hPa
  • 20-01-2018 12:00:00 | 3.30°C | Nordeste |7.00 km/h | 51.00% | 829.40 hPa
  • 20-01-2018 11:00:00 | 1.20°C | Sudeste |5.00 km/h | 58.00% | 829.80 hPa
  • 20-01-2018 10:00:00 | -0.20°C | Nordeste |6.00 km/h | 59.00% | 829.90 hPa
  • 20-01-2018 09:00:00 | -2.20°C | Sudeste |5.00 km/h | 64.00% | 829.80 hPa
  • 20-01-2018 08:00:00 | -3.80°C | Sudoeste |5.00 km/h | 70.00% | 830.30 hPa
  • 20-01-2018 07:00:00 | -2.60°C | Sudeste |4.00 km/h | 68.00% | 829.80 hPa
  • 20-01-2018 06:00:00 | -3.50°C | Sur |6.00 km/h | 71.00% | 830.00 hPa
  • 20-01-2018 05:00:00 | -3.30°C | Sudeste |5.00 km/h | 72.00% | 829.80 hPa
  • 20-01-2018 04:00:00 | -2.20°C | Sudeste |4.00 km/h | 68.00% | 830.00 hPa
  • 20-01-2018 03:00:00 | -2.60°C | Sur |6.00 km/h | 70.00% | 830.20 hPa